createdAt,value
2022-07-25T00:02:05.869Z,19.20
2022-07-25T00:07:11.365Z,19.10
2022-07-25T00:12:12.104Z,19.10
2022-07-25T00:17:07.888Z,19.00
2022-07-25T00:22:11.425Z,19.00
2022-07-25T00:27:12.129Z,18.90
2022-07-25T00:32:17.671Z,18.90
2022-07-25T00:37:13.509Z,18.90
2022-07-25T00:42:19.179Z,18.90
2022-07-25T00:47:15.004Z,18.80
2022-07-25T00:52:15.665Z,18.80
2022-07-25T00:57:16.387Z,18.80
2022-07-25T01:02:17.159Z,18.70
2022-07-25T01:07:17.816Z,18.70
2022-07-25T01:12:18.515Z,18.70
2022-07-25T01:17:19.329Z,18.60
2022-07-25T01:22:20.077Z,18.60
2022-07-25T01:27:20.752Z,18.50
2022-07-25T01:32:26.210Z,18.50
2022-07-25T01:37:26.964Z,18.50
2022-07-25T01:42:27.632Z,18.40
2022-07-25T01:47:31.183Z,18.40
2022-07-25T01:52:26.996Z,18.40
2022-07-25T01:57:32.542Z,18.40
2022-07-25T02:02:33.274Z,18.30
2022-07-25T02:07:29.130Z,18.30
2022-07-25T02:12:29.811Z,18.30
2022-07-25T02:17:35.514Z,18.30
2022-07-25T02:22:31.349Z,18.20
2022-07-25T02:27:36.941Z,18.20
2022-07-25T02:32:32.749Z,18.20
2022-07-25T02:37:33.456Z,18.20
2022-07-25T02:42:34.197Z,18.10
2022-07-25T02:47:34.773Z,18.10
2022-07-25T02:52:40.476Z,18.10
2022-07-25T02:57:41.136Z,18.00
2022-07-25T03:02:36.963Z,18.00
2022-07-25T03:07:48.944Z,18.00
2022-07-25T03:12:43.220Z,17.90
2022-07-25T03:17:39.056Z,17.90
2022-07-25T03:22:44.688Z,17.90
2022-07-25T03:27:45.352Z,17.90
2022-07-25T03:32:46.079Z,17.80
2022-07-25T03:37:49.617Z,17.80
2022-07-25T03:42:50.245Z,17.80
2022-07-25T03:47:51.019Z,17.80
2022-07-25T03:52:51.688Z,17.80
2022-07-25T03:58:05.297Z,17.70
2022-07-25T04:02:48.410Z,17.70
2022-07-25T04:07:48.994Z,17.70
2022-07-25T04:12:49.831Z,17.70
2022-07-25T04:17:50.523Z,17.60
2022-07-25T04:22:56.071Z,17.60
2022-07-25T04:27:56.732Z,17.60
2022-07-25T04:32:52.758Z,17.60
2022-07-25T04:37:53.431Z,17.60
2022-07-25T04:42:59.086Z,17.60
2022-07-25T04:47:59.712Z,17.60
2022-07-25T04:52:55.545Z,17.70
2022-07-25T04:58:01.183Z,17.70
2022-07-25T05:03:01.827Z,17.80
2022-07-25T05:08:02.583Z,17.90
2022-07-25T05:13:01.086Z,17.90
2022-07-25T05:18:01.845Z,18.00
2022-07-25T05:23:02.561Z,18.10
2022-07-25T05:28:03.289Z,18.20
2022-07-25T05:33:04.075Z,18.30
2022-07-25T05:38:09.678Z,18.40
2022-07-25T05:43:05.550Z,18.50
2022-07-25T05:48:11.070Z,18.60
2022-07-25T05:53:11.804Z,18.70
2022-07-25T05:58:07.579Z,18.80
2022-07-25T06:03:13.219Z,18.90
2022-07-25T06:08:09.089Z,19.00
2022-07-25T06:13:09.797Z,19.10
2022-07-25T06:18:16.275Z,19.30
2022-07-25T06:23:11.151Z,19.40
2022-07-25T06:28:18.259Z,19.50
2022-07-25T06:33:17.410Z,19.60
2022-07-25T06:38:15.990Z,19.70
2022-07-25T06:43:21.632Z,19.90
2022-07-25T06:48:22.272Z,20.00
2022-07-25T06:53:18.199Z,20.10
2022-07-25T06:58:18.977Z,20.30
2022-07-25T07:03:19.675Z,20.40
2022-07-25T07:08:25.143Z,20.50
2022-07-25T07:13:24.222Z,20.60
2022-07-25T07:18:21.703Z,20.80
2022-07-25T07:23:27.259Z,20.90
2022-07-25T07:28:23.070Z,21.10
2022-07-25T07:33:28.608Z,21.20
2022-07-25T07:38:29.246Z,21.30
2022-07-25T07:43:29.805Z,21.50
2022-07-25T07:48:40.401Z,21.60
2022-07-25T07:53:29.041Z,21.80
2022-07-25T07:58:29.653Z,22.00
2022-07-25T08:03:30.377Z,22.10
2022-07-25T08:08:31.646Z,22.30
2022-07-25T08:13:31.815Z,22.50
2022-07-25T08:18:32.428Z,22.60
2022-07-25T08:23:33.082Z,22.80
2022-07-25T08:28:38.617Z,23.00
2022-07-25T08:33:37.189Z,23.10
2022-07-25T08:38:37.794Z,23.30
2022-07-25T08:43:38.540Z,23.50
2022-07-25T08:48:44.106Z,23.70
2022-07-25T08:53:39.889Z,23.90
2022-07-25T08:58:45.451Z,24.00
2022-07-25T09:03:46.018Z,24.20
2022-07-25T09:08:41.852Z,24.40
2022-07-25T09:13:45.230Z,24.60
2022-07-25T09:18:45.854Z,24.80
2022-07-25T09:23:46.583Z,24.90
2022-07-25T09:28:52.006Z,25.10
2022-07-25T09:33:47.777Z,25.30
2022-07-25T09:38:53.357Z,25.40
2022-07-25T09:43:49.152Z,25.60
2022-07-25T09:48:57.453Z,25.80
2022-07-25T09:53:57.902Z,25.90
2022-07-25T09:58:58.591Z,26.10
2022-07-25T10:03:54.472Z,26.30
2022-07-25T10:08:55.000Z,26.40
2022-07-25T10:13:55.662Z,26.50
2022-07-25T10:18:56.246Z,26.70
2022-07-25T10:23:59.688Z,26.80
2022-07-25T10:29:00.373Z,27.00
2022-07-25T10:34:00.986Z,27.10
2022-07-25T10:39:01.704Z,27.30
2022-07-25T10:44:02.296Z,27.40
2022-07-25T10:49:06.081Z,27.50
2022-07-25T10:54:11.314Z,27.60
2022-07-25T10:59:11.795Z,27.70
2022-07-25T11:04:07.447Z,27.90
2022-07-25T11:09:08.433Z,28.00
2022-07-25T11:14:08.715Z,28.10
2022-07-25T11:19:12.136Z,28.20
2022-07-25T11:24:12.792Z,28.30
2022-07-25T11:29:13.330Z,28.40
2022-07-25T11:34:18.909Z,28.50
2022-07-25T11:39:19.488Z,28.60
2022-07-25T11:44:18.026Z,28.70
2022-07-25T11:46:41.311Z,28.80
2022-07-25T11:51:45.918Z,28.90
2022-07-25T12:01:47.487Z,29.10
2022-07-25T12:06:55.980Z,29.20
2022-07-25T12:11:49.666Z,29.30
2022-07-25T12:21:59.210Z,29.50
2022-07-25T12:26:58.980Z,29.60
2022-07-25T12:37:58.695Z,29.80
2022-07-25T12:41:57.921Z,29.90
2022-07-25T12:46:56.252Z,29.90
2022-07-25T12:52:06.242Z,30.00
2022-07-25T12:57:10.121Z,30.10
2022-07-25T13:02:46.179Z,30.20
2022-07-25T13:15:12.292Z,30.30
2022-07-25T13:27:07.799Z,30.50
2022-07-25T13:32:11.192Z,30.60
2022-07-25T13:37:25.470Z,30.60
2022-07-25T13:42:15.837Z,30.70
2022-07-25T13:47:13.267Z,30.80
2022-07-25T13:51:39.929Z,30.80
2022-07-25T13:56:44.457Z,30.90
2022-07-25T14:01:45.041Z,30.90
2022-07-25T14:06:43.295Z,31.00
2022-07-25T14:11:43.804Z,31.10
2022-07-25T14:16:49.421Z,31.10
2022-07-25T14:21:45.050Z,31.20
2022-07-25T14:26:48.427Z,31.20
2022-07-25T14:31:49.104Z,31.30
2022-07-25T14:36:54.336Z,31.30
2022-07-25T14:41:50.496Z,31.40
2022-07-25T14:46:50.700Z,31.40
2022-07-25T14:51:53.845Z,31.40
2022-07-25T14:56:59.282Z,31.50
2022-07-25T15:01:54.855Z,31.50
2022-07-25T15:06:55.521Z,31.50
2022-07-25T15:12:00.967Z,31.50
2022-07-25T15:16:59.366Z,31.50
2022-07-25T15:22:04.729Z,31.50
2022-07-25T15:27:05.199Z,31.50
2022-07-25T15:32:05.889Z,31.50
2022-07-25T15:37:06.320Z,31.50
2022-07-25T15:42:04.797Z,31.50
2022-07-25T15:47:05.379Z,31.50
2022-07-25T15:52:06.022Z,31.50
2022-07-25T15:57:06.677Z,31.50
2022-07-25T16:02:09.970Z,31.50
2022-07-25T16:07:15.484Z,31.50
2022-07-25T16:12:15.974Z,31.50
2022-07-25T16:17:16.551Z,31.50
2022-07-25T16:31:39.035Z,31.40
2022-07-25T16:36:42.387Z,31.40
2022-07-25T16:41:44.060Z,31.40
2022-07-25T16:46:37.899Z,31.40
2022-07-25T16:51:34.143Z,31.30
2022-07-25T16:56:34.574Z,31.30
2022-07-25T17:01:30.220Z,31.30
2022-07-25T17:06:30.963Z,31.20
2022-07-25T17:11:31.434Z,31.20
2022-07-25T17:16:34.819Z,31.10
2022-07-25T17:21:35.427Z,31.00
2022-07-25T17:26:36.045Z,31.00
2022-07-25T17:31:41.799Z,30.90
2022-07-25T17:36:41.922Z,30.80
2022-07-25T17:41:40.279Z,30.60
2022-07-25T17:46:40.988Z,30.40
2022-07-25T17:51:46.256Z,30.00
2022-07-25T17:56:26.870Z,29.80
2022-07-25T18:01:38.600Z,29.50
2022-07-25T18:11:39.768Z,29.00
2022-07-25T18:16:42.662Z,28.70
2022-07-25T18:21:30.402Z,28.40
2022-07-25T18:26:37.246Z,28.20
2022-07-25T18:31:41.040Z,28.00
2022-07-25T18:36:38.141Z,27.80
2022-07-25T18:46:41.262Z,27.50
2022-07-25T18:51:38.989Z,27.40
2022-07-25T18:56:38.720Z,27.20
2022-07-25T19:01:39.483Z,27.10
2022-07-25T19:06:46.137Z,27.00
2022-07-25T19:11:42.261Z,26.90
2022-07-25T19:16:46.860Z,26.80
2022-07-25T19:21:44.766Z,26.70
2022-07-25T19:26:45.908Z,26.60
2022-07-25T19:31:46.662Z,26.50
2022-07-25T19:36:48.178Z,26.40
2022-07-25T19:41:50.185Z,26.30
2022-07-25T19:46:48.185Z,26.20
2022-07-25T19:51:58.204Z,26.10
2022-07-25T19:56:53.081Z,26.00
2022-07-25T20:01:56.237Z,26.00
2022-07-25T20:06:54.212Z,25.90
2022-07-25T20:12:00.931Z,25.80
2022-07-25T20:16:58.619Z,25.70
2022-07-25T20:22:01.612Z,25.70
2022-07-25T20:26:31.907Z,25.60
2022-07-25T20:31:31.512Z,25.50
2022-07-25T20:36:26.811Z,25.50
2022-07-25T20:41:27.571Z,25.40
2022-07-25T20:46:28.156Z,25.30
2022-07-25T20:51:28.821Z,25.20
2022-07-25T20:56:34.883Z,25.20
2022-07-25T21:01:35.218Z,25.10
2022-07-25T21:06:33.439Z,25.00
2022-07-25T21:11:34.112Z,24.90
2022-07-25T21:17:11.881Z,24.80
2022-07-25T21:21:40.320Z,24.80
2022-07-25T21:27:12.666Z,24.70
2022-07-25T21:31:42.500Z,24.70
2022-07-25T21:36:37.584Z,24.60
2022-07-25T21:42:05.658Z,24.50
2022-07-25T21:46:42.243Z,24.50
2022-07-25T21:51:42.372Z,24.40
2022-07-25T21:56:47.850Z,24.30
2022-07-25T22:01:48.617Z,24.30
2022-07-25T22:06:45.889Z,24.20
2022-07-25T22:11:46.379Z,24.10
2022-07-25T22:16:48.622Z,24.00
2022-07-25T22:21:54.145Z,23.90
2022-07-25T22:26:49.681Z,23.80
2022-07-25T22:31:55.209Z,23.70
2022-07-25T22:36:55.925Z,23.60
2022-07-25T22:41:51.739Z,23.50
2022-07-25T22:52:00.419Z,23.40
2022-07-25T22:56:56.230Z,23.20
2022-07-25T23:02:01.889Z,23.20
2022-07-25T23:07:03.010Z,23.10
2022-07-25T23:12:03.061Z,23.00
2022-07-25T23:16:59.134Z,23.00
2022-07-25T23:21:59.756Z,22.90
2022-07-25T23:27:04.949Z,22.90
2022-07-25T23:32:08.387Z,22.80
2022-07-25T23:37:04.193Z,22.80
2022-07-25T23:42:13.794Z,22.80
2022-07-25T23:47:05.552Z,22.70
2022-07-25T23:52:06.270Z,22.70
2022-07-25T23:57:06.968Z,22.70
